createdAt,value
2018-11-02T00:01:08.576Z,2.82
2018-11-02T00:03:39.523Z,2.73
2018-11-02T00:06:10.525Z,2.68
2018-11-02T00:08:41.640Z,2.60
2018-11-02T00:11:13.324Z,2.46
2018-11-02T00:13:44.559Z,2.37
2018-11-02T00:16:15.826Z,2.44
2018-11-02T00:18:47.485Z,2.48
2018-11-02T00:21:18.803Z,2.58
2018-11-02T00:23:50.148Z,2.66
2018-11-02T00:26:21.066Z,2.79
2018-11-02T00:28:52.319Z,2.91
2018-11-02T00:31:23.965Z,3.04
2018-11-02T00:33:54.863Z,3.24
2018-11-02T00:36:25.994Z,3.42
2018-11-02T00:38:58.051Z,3.51
2018-11-02T00:41:29.021Z,3.55
2018-11-02T00:44:00.266Z,3.47
2018-11-02T00:46:31.452Z,3.33
2018-11-02T00:49:02.749Z,3.21
2018-11-02T00:51:33.814Z,3.04
2018-11-02T00:54:04.803Z,2.95
2018-11-02T00:56:35.851Z,3.01
2018-11-02T00:59:06.906Z,3.04
2018-11-02T01:01:38.807Z,3.18
2018-11-02T01:04:09.847Z,3.31
2018-11-02T01:06:42.012Z,3.38
2018-11-02T01:09:15.432Z,3.36
2018-11-02T01:11:46.842Z,3.40
2018-11-02T01:14:18.364Z,3.45
2018-11-02T01:16:49.328Z,3.45
2018-11-02T01:19:25.608Z,3.44
2018-11-02T01:21:56.977Z,3.44
2018-11-02T01:24:27.908Z,3.53
2018-11-02T01:26:58.979Z,3.55
2018-11-02T01:29:30.394Z,3.59
2018-11-02T01:32:01.362Z,3.59
2018-11-02T01:34:32.277Z,3.56
2018-11-02T01:37:03.252Z,3.46
2018-11-02T01:39:34.696Z,3.41
2018-11-02T01:42:06.418Z,3.41
2018-11-02T01:44:37.755Z,3.58
2018-11-02T01:47:08.894Z,3.72
2018-11-02T01:49:39.786Z,3.77
2018-11-02T01:52:10.712Z,3.79
2018-11-02T01:54:41.906Z,3.75
2018-11-02T01:57:12.808Z,3.67
2018-11-02T01:59:43.764Z,3.67
2018-11-02T02:02:14.940Z,3.68
2018-11-02T02:04:46.631Z,3.67
2018-11-02T02:07:17.512Z,3.63
2018-11-02T02:09:48.736Z,3.53
2018-11-02T02:12:19.625Z,3.55
2018-11-02T02:14:50.542Z,3.51
2018-11-02T02:17:21.455Z,3.45
2018-11-02T02:19:52.627Z,3.38
2018-11-02T02:22:23.874Z,3.45
2018-11-02T02:24:55.151Z,3.62
2018-11-02T02:27:26.070Z,3.66
2018-11-02T02:29:57.631Z,3.63
2018-11-02T02:32:28.542Z,3.68
2018-11-02T02:34:59.540Z,3.81
2018-11-02T02:37:30.399Z,3.84
2018-11-02T02:40:02.151Z,3.88
2018-11-02T02:42:33.059Z,3.82
2018-11-02T02:45:03.974Z,3.73
2018-11-02T02:47:34.904Z,3.66
2018-11-02T02:50:07.335Z,3.58
2018-11-02T02:52:38.234Z,3.53
2018-11-02T02:55:09.528Z,3.47
2018-11-02T02:57:41.012Z,3.29
2018-11-02T03:00:13.980Z,3.15
2018-11-02T03:02:45.031Z,3.06
2018-11-02T03:05:16.219Z,2.95
2018-11-02T03:07:47.379Z,2.86
2018-11-02T03:10:18.363Z,2.86
2018-11-02T03:12:50.069Z,2.87
2018-11-02T03:15:21.248Z,2.87
2018-11-02T03:17:52.422Z,2.88
2018-11-02T03:20:23.351Z,2.97
2018-11-02T03:22:54.218Z,3.06
2018-11-02T03:25:25.435Z,3.12
2018-11-02T03:27:56.614Z,3.21
2018-11-02T03:30:27.609Z,3.26
2018-11-02T03:32:58.481Z,3.33
2018-11-02T03:35:29.395Z,3.38
2018-11-02T03:38:00.334Z,3.49
2018-11-02T03:40:31.627Z,3.57
2018-11-02T03:43:02.515Z,3.61
2018-11-02T03:45:33.422Z,3.74
2018-11-02T03:48:04.593Z,3.84
2018-11-02T03:50:35.519Z,3.90
2018-11-02T03:53:06.417Z,3.88
2018-11-02T03:55:37.364Z,3.87
2018-11-02T03:58:08.231Z,3.90
2018-11-02T04:00:41.051Z,3.87
2018-11-02T04:03:12.298Z,3.81
2018-11-02T04:05:43.199Z,3.80
2018-11-02T04:08:14.086Z,3.82
2018-11-02T04:10:45.980Z,3.87
2018-11-02T04:13:16.878Z,3.86
2018-11-02T04:15:47.751Z,3.76
2018-11-02T04:18:18.690Z,3.66
2018-11-02T04:20:49.584Z,3.66
2018-11-02T04:23:20.455Z,3.57
2018-11-02T04:25:51.716Z,3.50
2018-11-02T04:28:22.548Z,3.43
2018-11-02T04:30:53.444Z,3.30
2018-11-02T04:33:24.391Z,3.14
2018-11-02T04:35:55.273Z,2.89
2018-11-02T04:38:26.166Z,2.79
2018-11-02T04:40:57.114Z,2.76
2018-11-02T04:43:28.039Z,2.75
2018-11-02T04:45:59.180Z,2.73
2018-11-02T04:48:30.126Z,2.70
2018-11-02T04:51:01.058Z,2.68
2018-11-02T04:53:32.164Z,2.73
2018-11-02T04:56:03.033Z,2.75
2018-11-02T04:58:34.231Z,2.76
2018-11-02T05:01:05.104Z,2.80
2018-11-02T05:03:35.971Z,2.79
2018-11-02T05:06:07.112Z,2.80
2018-11-02T05:08:37.981Z,2.83
2018-11-02T05:11:09.427Z,2.92
2018-11-02T05:13:40.332Z,2.94
2018-11-02T05:16:11.209Z,2.92
2018-11-02T05:18:42.376Z,2.85
2018-11-02T05:21:13.647Z,2.85
2018-11-02T05:23:44.781Z,2.82
2018-11-02T05:26:15.743Z,2.81
2018-11-02T05:28:46.835Z,2.79
2018-11-02T05:31:17.723Z,2.84
2018-11-02T05:33:48.918Z,2.95
2018-11-02T05:36:20.062Z,3.04
2018-11-02T05:38:50.950Z,3.16
2018-11-02T05:41:22.266Z,3.30
2018-11-02T05:43:53.368Z,3.49
2018-11-02T05:46:24.321Z,3.58
2018-11-02T05:48:55.273Z,3.67
2018-11-02T05:51:26.284Z,3.76
2018-11-02T05:53:57.248Z,3.85
2018-11-02T05:56:28.277Z,3.84
2018-11-02T05:59:00.131Z,3.82
2018-11-02T06:01:31.321Z,3.84
2018-11-02T06:04:02.162Z,3.90
2018-11-02T06:06:33.258Z,3.95
2018-11-02T06:09:04.618Z,4.00
2018-11-02T06:11:35.692Z,3.95
2018-11-02T06:14:06.717Z,3.93
2018-11-02T06:16:37.694Z,3.94
2018-11-02T06:19:08.785Z,3.90
2018-11-02T06:21:39.722Z,3.83
2018-11-02T06:24:10.744Z,3.77
2018-11-02T06:26:41.803Z,3.75
2018-11-02T06:29:12.840Z,3.72
2018-11-02T06:31:44.251Z,3.70
2018-11-02T06:34:15.307Z,3.68
2018-11-02T06:36:46.654Z,3.66
2018-11-02T06:39:17.606Z,3.71
2018-11-02T06:41:48.798Z,3.76
2018-11-02T06:44:19.726Z,3.77
2018-11-02T06:46:50.802Z,3.79
2018-11-02T06:49:21.841Z,3.78
2018-11-02T06:51:52.788Z,3.87
2018-11-02T06:54:23.755Z,3.91
2018-11-02T06:56:55.179Z,3.96
2018-11-02T06:59:26.315Z,4.02
2018-11-02T07:01:57.301Z,4.07
2018-11-02T07:04:28.747Z,4.16
2018-11-02T07:06:59.762Z,4.40
2018-11-02T07:09:31.172Z,4.61
2018-11-02T07:12:02.220Z,4.77
2018-11-02T07:14:33.468Z,4.94
2018-11-02T07:17:04.385Z,5.16
2018-11-02T07:19:35.662Z,5.25
2018-11-02T07:22:07.075Z,5.32
2018-11-02T07:24:38.168Z,5.40
2018-11-02T07:27:09.263Z,5.36
2018-11-02T07:29:40.267Z,5.34
2018-11-02T07:32:11.296Z,5.40
2018-11-02T07:34:42.399Z,5.46
2018-11-02T07:37:13.303Z,5.47
2018-11-02T07:39:44.366Z,5.50
2018-11-02T07:42:15.389Z,5.57
2018-11-02T07:44:46.573Z,5.56
2018-11-02T07:47:17.525Z,5.61
2018-11-02T07:49:48.916Z,5.63
2018-11-02T07:52:19.867Z,5.64
2018-11-02T07:54:51.150Z,5.72
2018-11-02T07:57:22.083Z,5.79
2018-11-02T07:59:53.066Z,5.88
2018-11-02T08:02:24.230Z,5.98
2018-11-02T08:04:55.232Z,6.11
2018-11-02T08:07:26.540Z,6.27
2018-11-02T08:09:58.012Z,6.39
2018-11-02T08:12:29.395Z,6.54
2018-11-02T08:15:00.545Z,6.79
2018-11-02T08:17:31.625Z,6.95
2018-11-02T08:20:02.592Z,7.14
2018-11-02T08:22:33.541Z,7.30
2018-11-02T08:25:04.604Z,7.59
2018-11-02T08:27:35.536Z,7.90
2018-11-02T08:30:06.965Z,8.34
2018-11-02T08:32:38.265Z,9.49
2018-11-02T08:35:12.417Z,10.46
2018-11-02T08:37:43.749Z,10.29
2018-11-02T08:40:14.946Z,10.54
2018-11-02T08:42:45.992Z,11.25
2018-11-02T08:45:17.065Z,11.49
2018-11-02T08:47:48.880Z,11.69
2018-11-02T08:50:19.899Z,11.93
2018-11-02T08:52:50.921Z,11.85
2018-11-02T08:55:22.004Z,11.53
2018-11-02T08:57:53.144Z,12.29
2018-11-02T09:00:24.036Z,12.42
2018-11-02T09:02:55.118Z,11.98
2018-11-02T09:05:26.076Z,11.61
2018-11-02T09:07:57.217Z,11.79
2018-11-02T09:10:28.174Z,11.19
2018-11-02T09:12:59.276Z,10.87
2018-11-02T09:15:31.951Z,10.11
2018-11-02T09:18:01.200Z,10.19
2018-11-02T09:20:32.470Z,10.45
2018-11-02T09:23:03.555Z,10.43
2018-11-02T09:25:34.889Z,10.45
2018-11-02T09:28:06.401Z,10.51
2018-11-02T09:30:37.408Z,10.62
2018-11-02T09:33:08.494Z,10.43
2018-11-02T09:35:39.651Z,10.84
2018-11-02T09:38:10.682Z,10.93
2018-11-02T09:40:41.624Z,11.61
2018-11-02T09:43:12.752Z,11.90
2018-11-02T09:45:43.798Z,12.78
2018-11-02T09:48:15.085Z,13.54
2018-11-02T09:50:46.126Z,13.97
2018-11-02T09:53:17.155Z,14.61
2018-11-02T09:55:48.464Z,15.04
2018-11-02T09:58:19.462Z,15.58
2018-11-02T10:00:50.901Z,16.05
2018-11-02T10:03:21.949Z,15.42
2018-11-02T10:05:52.917Z,14.49
2018-11-02T10:08:23.984Z,14.37
2018-11-02T10:10:54.971Z,14.02
2018-11-02T10:13:26.053Z,13.75
2018-11-02T10:15:57.366Z,13.38
2018-11-02T10:18:28.752Z,13.02
2018-11-02T10:20:59.706Z,12.46
2018-11-02T10:23:31.171Z,12.10
2018-11-02T10:26:02.544Z,11.98
2018-11-02T10:28:33.741Z,12.15
2018-11-02T10:31:04.976Z,12.21
2018-11-02T10:33:36.031Z,12.16
2018-11-02T10:36:08.470Z,12.49
2018-11-02T10:38:39.377Z,12.56
2018-11-02T10:41:12.358Z,12.52
2018-11-02T10:43:43.562Z,12.39
2018-11-02T10:46:14.573Z,12.00
2018-11-02T10:48:46.062Z,11.97
2018-11-02T10:51:17.455Z,12.08
2018-11-02T10:53:48.353Z,12.24
2018-11-02T10:56:19.347Z,12.38
2018-11-02T10:58:50.232Z,12.80
2018-11-02T11:01:38.390Z,13.54
2018-11-02T11:04:09.363Z,13.62
2018-11-02T11:06:40.351Z,13.39
2018-11-02T11:09:13.336Z,13.09
2018-11-02T11:11:44.531Z,12.88
2018-11-02T11:14:15.352Z,13.06
2018-11-02T11:16:46.265Z,13.25
2018-11-02T11:19:17.924Z,13.35
2018-11-02T11:21:49.010Z,13.28
2018-11-02T11:24:20.031Z,13.84
2018-11-02T11:26:51.098Z,14.45
2018-11-02T11:29:22.157Z,15.00
2018-11-02T11:31:52.966Z,15.69
2018-11-02T11:34:23.944Z,16.05
2018-11-02T11:36:54.938Z,15.73
2018-11-02T11:39:26.262Z,14.59
2018-11-02T11:41:57.511Z,14.26
2018-11-02T11:44:28.507Z,14.05
2018-11-02T11:46:59.900Z,13.83
2018-11-02T11:49:30.903Z,13.93
2018-11-02T11:52:01.795Z,13.99
2018-11-02T11:54:32.793Z,13.62
2018-11-02T11:57:03.657Z,13.54
2018-11-02T11:59:34.911Z,13.31
2018-11-02T12:02:05.996Z,13.39
2018-11-02T12:04:36.894Z,13.41
2018-11-02T12:07:07.881Z,13.44
2018-11-02T12:09:38.876Z,13.28
2018-11-02T12:12:09.997Z,13.04
2018-11-02T12:14:40.909Z,13.10
2018-11-02T12:17:12.116Z,13.51
2018-11-02T12:19:43.574Z,13.92
2018-11-02T12:22:14.626Z,13.86
2018-11-02T12:24:45.563Z,13.78
2018-11-02T12:27:16.810Z,13.86
2018-11-02T12:29:48.012Z,13.79
2018-11-02T12:32:18.960Z,13.83
2018-11-02T12:34:50.268Z,13.73
2018-11-02T12:37:21.134Z,13.61
2018-11-02T12:39:52.043Z,13.55
2018-11-02T12:42:23.327Z,13.61
2018-11-02T12:44:54.189Z,13.55
2018-11-02T12:47:25.143Z,13.64
2018-11-02T12:49:56.149Z,13.79
2018-11-02T12:52:27.020Z,13.93
2018-11-02T12:54:58.006Z,14.03
2018-11-02T12:57:28.997Z,14.10
2018-11-02T12:59:59.858Z,14.07
2018-11-02T13:02:31.505Z,14.03
2018-11-02T13:05:02.436Z,14.02
2018-11-02T13:07:33.652Z,14.12
2018-11-02T13:10:04.536Z,14.25
2018-11-02T13:12:36.338Z,14.12
2018-11-02T13:15:08.953Z,14.08
2018-11-02T13:17:40.562Z,14.04
2018-11-02T13:20:12.021Z,13.88
2018-11-02T13:22:43.737Z,13.82
2018-11-02T13:25:18.754Z,13.72
2018-11-02T13:27:50.443Z,13.58
2018-11-02T13:30:21.598Z,13.45
2018-11-02T13:32:52.507Z,13.41
2018-11-02T13:35:23.820Z,13.41
2018-11-02T13:37:54.730Z,13.32
2018-11-02T13:40:25.700Z,13.24
2018-11-02T13:42:56.970Z,13.13
2018-11-02T13:45:28.701Z,13.15
2018-11-02T13:47:59.970Z,13.13
2018-11-02T13:50:31.013Z,13.09
2018-11-02T13:53:01.863Z,13.07
2018-11-02T13:55:33.366Z,13.16
2018-11-02T13:58:04.317Z,13.19
2018-11-02T14:00:35.214Z,13.32
2018-11-02T14:03:06.230Z,13.52
2018-11-02T14:05:37.297Z,13.73
2018-11-02T14:08:08.214Z,13.79
2018-11-02T14:10:39.145Z,13.83
2018-11-02T14:13:10.421Z,13.85
2018-11-02T14:15:42.185Z,13.77
2018-11-02T14:18:13.200Z,13.59
2018-11-02T14:20:44.190Z,13.35
2018-11-02T14:23:15.117Z,13.12
2018-11-02T14:25:46.059Z,12.99
2018-11-02T14:28:17.031Z,12.92
2018-11-02T14:30:47.943Z,12.91
2018-11-02T14:33:18.900Z,12.95
2018-11-02T14:35:49.786Z,12.99
2018-11-02T14:38:20.681Z,13.02
2018-11-02T14:40:51.631Z,12.94
2018-11-02T14:43:22.536Z,12.84
2018-11-02T14:45:53.548Z,12.79
2018-11-02T14:48:24.452Z,12.77
2018-11-02T14:50:55.501Z,12.59
2018-11-02T14:53:26.469Z,12.48
2018-11-02T14:55:57.404Z,12.32
2018-11-02T14:58:28.356Z,12.25
2018-11-02T15:00:59.654Z,12.23
2018-11-02T15:03:30.663Z,12.21
2018-11-02T15:06:01.612Z,12.18
2018-11-02T15:08:32.571Z,12.08
2018-11-02T15:11:03.456Z,12.05
2018-11-02T15:13:34.371Z,11.99
2018-11-02T15:16:05.328Z,11.91
2018-11-02T15:18:36.260Z,11.84
2018-11-02T15:21:07.747Z,11.80
2018-11-02T15:23:38.791Z,11.78
2018-11-02T15:26:10.076Z,11.71
2018-11-02T15:28:41.037Z,11.65
2018-11-02T15:31:11.981Z,11.58
2018-11-02T15:33:42.997Z,11.53
2018-11-02T15:36:13.975Z,11.43
2018-11-02T15:38:45.321Z,11.31
2018-11-02T15:41:16.238Z,11.20
2018-11-02T15:43:47.226Z,11.09
2018-11-02T15:46:18.317Z,10.96
2018-11-02T15:48:49.626Z,10.83
2018-11-02T15:51:20.864Z,10.75
2018-11-02T15:53:51.794Z,10.66
2018-11-02T15:56:22.713Z,10.57
2018-11-02T15:58:53.650Z,10.42
2018-11-02T16:01:24.539Z,10.27
2018-11-02T16:03:55.442Z,10.11
2018-11-02T16:06:26.406Z,10.02
2018-11-02T16:08:57.339Z,9.98
2018-11-02T16:11:28.293Z,9.94
2018-11-02T16:13:59.195Z,9.90
2018-11-02T16:16:30.521Z,9.87
2018-11-02T16:19:01.615Z,9.84
2018-11-02T16:21:32.518Z,9.83
2018-11-02T16:24:03.527Z,9.82
2018-11-02T16:26:34.501Z,9.74
2018-11-02T16:29:05.824Z,9.62
2018-11-02T16:31:36.971Z,9.52
2018-11-02T16:34:08.017Z,9.45
2018-11-02T16:36:38.969Z,9.43
2018-11-02T16:39:13.871Z,9.45
2018-11-02T16:41:44.819Z,9.48
2018-11-02T16:44:16.005Z,9.61
2018-11-02T16:46:47.004Z,9.67
2018-11-02T16:49:17.930Z,9.72
2018-11-02T16:51:48.832Z,9.75
2018-11-02T16:54:20.172Z,9.81
2018-11-02T16:56:51.048Z,9.94
2018-11-02T16:59:21.981Z,10.08
2018-11-02T17:01:53.020Z,10.19
2018-11-02T17:04:23.960Z,10.27
2018-11-02T17:06:55.233Z,10.34
2018-11-02T17:09:26.502Z,10.33
2018-11-02T17:11:57.824Z,10.34
2018-11-02T17:14:28.790Z,10.35
2018-11-02T17:16:59.709Z,10.34
2018-11-02T17:19:30.692Z,10.33
2018-11-02T17:22:02.038Z,10.29
2018-11-02T17:24:32.911Z,10.32
2018-11-02T17:27:03.834Z,10.26
2018-11-02T17:29:35.114Z,10.20
2018-11-02T17:32:06.219Z,10.09
2018-11-02T17:34:37.136Z,9.98
2018-11-02T17:37:08.534Z,9.95
2018-11-02T17:39:39.910Z,9.94
2018-11-02T17:42:13.825Z,9.91
2018-11-02T17:44:44.853Z,9.92
2018-11-02T17:47:15.796Z,9.88
2018-11-02T17:49:46.712Z,9.83
2018-11-02T17:52:17.638Z,9.76
2018-11-02T17:54:48.599Z,9.73
2018-11-02T17:57:19.541Z,9.73
2018-11-02T17:59:50.585Z,9.77
2018-11-02T18:02:21.538Z,9.73
2018-11-02T18:04:52.843Z,9.70
2018-11-02T18:07:24.122Z,9.62
2018-11-02T18:09:55.901Z,9.60
2018-11-02T18:12:26.947Z,9.65
2018-11-02T18:14:58.259Z,9.70
2018-11-02T18:17:29.801Z,9.71
2018-11-02T18:20:01.354Z,9.74
2018-11-02T18:22:32.664Z,9.73
2018-11-02T18:25:03.642Z,9.74
2018-11-02T18:27:34.667Z,9.76
2018-11-02T18:30:06.508Z,9.77
2018-11-02T18:32:37.540Z,9.78
2018-11-02T18:35:09.310Z,9.77
2018-11-02T18:37:40.225Z,9.74
2018-11-02T18:40:13.481Z,9.73
2018-11-02T18:42:44.518Z,9.74
2018-11-02T18:45:16.171Z,9.69
2018-11-02T18:47:48.371Z,9.69
2018-11-02T18:50:20.603Z,9.71
2018-11-02T18:52:51.956Z,9.66
2018-11-02T18:55:23.219Z,9.64
2018-11-02T19:00:25.133Z,9.55
2018-11-02T19:02:56.036Z,9.54
2018-11-02T19:05:27.088Z,9.47
2018-11-02T19:07:58.297Z,9.45
2018-11-02T19:10:29.247Z,9.33
2018-11-02T19:13:00.162Z,9.19
2018-11-02T19:15:31.256Z,9.04
2018-11-02T19:18:02.148Z,8.88
2018-11-02T19:20:33.136Z,8.68
2018-11-02T19:23:04.332Z,8.50
2018-11-02T19:25:35.244Z,8.40
2018-11-02T19:28:06.172Z,8.39
2018-11-02T19:30:37.839Z,8.43
2018-11-02T19:33:08.866Z,8.54
2018-11-02T19:35:40.061Z,8.61
2018-11-02T19:38:11.209Z,8.67
2018-11-02T19:40:41.885Z,8.68
2018-11-02T19:43:12.832Z,8.69
2018-11-02T19:45:43.748Z,8.69
2018-11-02T19:48:14.705Z,8.69
2018-11-02T19:50:45.696Z,8.69
2018-11-02T19:53:16.526Z,8.68
2018-11-02T19:55:47.817Z,8.66
2018-11-02T19:58:18.707Z,8.63
2018-11-02T20:00:49.612Z,8.57
2018-11-02T20:03:20.533Z,8.54
2018-11-02T20:05:51.754Z,8.52
2018-11-02T20:08:23.096Z,8.50
2018-11-02T20:10:54.088Z,8.48
2018-11-02T20:13:25.295Z,8.47
2018-11-02T20:15:56.520Z,8.43
2018-11-02T20:18:27.426Z,8.43
2018-11-02T20:20:58.406Z,8.42
2018-11-02T20:23:29.795Z,8.36
2018-11-02T20:26:00.746Z,8.31
2018-11-02T20:28:31.647Z,8.37
2018-11-02T20:31:02.588Z,8.45
2018-11-02T20:33:33.531Z,8.53
2018-11-02T20:36:04.833Z,8.52
2018-11-02T20:38:35.778Z,8.48
2018-11-02T20:41:06.842Z,8.43
2018-11-02T20:43:37.810Z,8.47
2018-11-02T20:46:08.938Z,8.50
2018-11-02T20:48:40.298Z,8.55
2018-11-02T20:51:11.144Z,8.59
2018-11-02T20:53:42.436Z,8.63
2018-11-02T20:56:13.373Z,8.63
2018-11-02T20:58:44.279Z,8.60
2018-11-02T21:01:15.605Z,8.62
2018-11-02T21:03:46.553Z,8.66
2018-11-02T21:06:17.583Z,8.65
2018-11-02T21:08:48.599Z,8.60
2018-11-02T21:13:51.254Z,8.58
2018-11-02T21:16:22.370Z,8.66
2018-11-02T21:18:53.646Z,8.71
2018-11-02T21:21:24.600Z,8.68
2018-11-02T21:23:56.212Z,8.67
2018-11-02T21:26:27.222Z,8.63
2018-11-02T21:28:58.723Z,8.62
2018-11-02T21:31:29.649Z,8.66
2018-11-02T21:34:00.691Z,8.64
2018-11-02T21:36:31.710Z,8.65
2018-11-02T21:39:03.047Z,8.63
2018-11-02T21:41:34.368Z,8.67
2018-11-02T21:44:05.304Z,8.66
2018-11-02T21:46:36.221Z,8.66
2018-11-02T21:49:07.353Z,8.72
2018-11-02T21:51:38.331Z,8.75
2018-11-02T21:54:09.318Z,8.79
2018-11-02T21:56:40.499Z,8.84
2018-11-02T21:59:11.787Z,8.86
2018-11-02T22:01:42.714Z,8.78
2018-11-02T22:04:13.875Z,8.78
2018-11-02T22:06:44.771Z,8.80
2018-11-02T22:09:15.834Z,8.82
2018-11-02T22:11:46.791Z,8.83
2018-11-02T22:14:17.715Z,8.91
2018-11-02T22:16:48.653Z,8.94
2018-11-02T22:19:19.646Z,8.97
2018-11-02T22:21:50.508Z,8.96
2018-11-02T22:24:21.435Z,8.95
2018-11-02T22:26:52.679Z,9.00
2018-11-02T22:29:23.887Z,9.06
2018-11-02T22:31:55.245Z,9.03
2018-11-02T22:34:26.158Z,9.04
2018-11-02T22:36:57.167Z,9.08
2018-11-02T22:39:28.119Z,9.09
2018-11-02T22:41:59.105Z,9.12
2018-11-02T22:44:30.109Z,9.09
2018-11-02T22:47:01.034Z,9.08
2018-11-02T22:49:31.988Z,9.10
2018-11-02T22:52:02.972Z,9.09
2018-11-02T22:54:33.933Z,9.08
2018-11-02T22:57:04.897Z,9.06
2018-11-02T22:59:35.843Z,9.03
2018-11-02T23:02:06.951Z,9.03
2018-11-02T23:04:37.962Z,9.03
2018-11-02T23:07:09.330Z,9.05
2018-11-02T23:09:40.325Z,9.09
2018-11-02T23:12:11.395Z,9.15
2018-11-02T23:14:42.423Z,9.12
2018-11-02T23:17:13.741Z,9.16
2018-11-02T23:19:44.704Z,9.25
2018-11-02T23:22:15.593Z,9.28
2018-11-02T23:24:46.901Z,9.32
2018-11-02T23:27:17.821Z,9.36
2018-11-02T23:29:49.684Z,9.40
2018-11-02T23:32:20.932Z,9.39
2018-11-02T23:34:51.916Z,9.33
2018-11-02T23:37:22.857Z,9.33
2018-11-02T23:39:53.825Z,9.31
2018-11-02T23:42:24.796Z,9.33
2018-11-02T23:44:55.846Z,9.29
2018-11-02T23:47:26.720Z,9.28
2018-11-02T23:49:57.675Z,9.34
2018-11-02T23:52:28.617Z,9.37
2018-11-02T23:54:59.533Z,9.38
2018-11-02T23:57:30.820Z,9.34
